Time;durP1;ratioP1;P1;durP2;ratioP2;P2;SDS_P1;SDS_P2;PMS_P1;PMS_P2;Temp;Humidity;BMP_temperature;BMP_pressure;BME280_temperature;BME280_humidity;BME280_pressure;Samples;Min_cycle;Max_cycle;Signal;HPM_P1;HPM_P2
2022/12/07 00:01:24;;;;;;;9.03;3.10;;;3.90;99.90;;;;;;5124093;27;20118;-70
2022/12/07 00:03:53;;;;;;;5.67;2.90;;;3.80;99.90;;;;;;5124882;27;20043;-70
2022/12/07 00:06:19;;;;;;;8.63;3.17;;;3.80;99.90;;;;;;5134431;27;20083;-70
2022/12/07 00:08:46;;;;;;;6.97;3.23;;;3.80;99.90;;;;;;5136096;27;20043;-70
2022/12/07 00:11:20;;;;;;;6.77;3.10;;;3.80;99.90;;;;;;5135613;27;20055;-70
2022/12/07 00:13:47;;;;;;;8.20;2.93;;;3.80;99.90;;;;;;5127544;27;20043;-70
2022/12/07 00:16:16;;;;;;;5.20;2.63;;;3.70;99.90;;;;;;5132710;27;20043;-70
2022/12/07 00:18:43;;;;;;;8.80;3.00;;;3.70;99.90;;;;;;5135646;27;20119;-70
2022/12/07 00:21:18;;;;;;;6.93;2.90;;;3.70;99.90;;;;;;5135708;27;20106;-70
2022/12/07 00:23:46;;;;;;;8.90;2.37;;;3.80;99.90;;;;;;5114809;28;20150;-70
2022/12/07 00:26:14;;;;;;;8.57;2.80;;;3.80;99.90;;;;;;5104638;28;20156;-70
2022/12/07 00:28:41;;;;;;;5.90;2.67;;;3.80;99.90;;;;;;5135262;27;20128;-71
2022/12/07 00:31:11;;;;;;;7.77;2.40;;;3.80;99.90;;;;;;5141367;27;20054;-70
2022/12/07 00:33:38;;;;;;;10.57;2.10;;;3.80;99.90;;;;;;5115880;27;20038;-70
2022/12/07 00:36:07;;;;;;;9.40;2.43;;;3.80;99.90;;;;;;5131936;27;20104;-69
2022/12/07 00:38:34;;;;;;;7.23;2.03;;;3.80;99.90;;;;;;5138672;27;20045;-70
2022/12/07 00:41:03;;;;;;;7.13;2.13;;;3.80;99.90;;;;;;5138369;27;20054;-69
2022/12/07 00:43:31;;;;;;;6.63;1.83;;;3.80;99.90;;;;;;5141252;27;20096;-69
2022/12/07 00:45:57;;;;;;;6.17;1.90;;;3.80;99.90;;;;;;5103706;27;20031;-70
2022/12/07 00:48:24;;;;;;;7.77;2.00;;;3.80;99.90;;;;;;5132147;27;20274;-70
2022/12/07 00:50:50;;;;;;;7.13;1.90;;;3.80;99.90;;;;;;5140554;27;20047;-69
2022/12/07 00:53:16;;;;;;;5.10;1.80;;;3.80;99.90;;;;;;5140124;27;20042;-70
2022/12/07 00:55:42;;;;;;;7.53;2.03;;;3.80;99.90;;;;;;5126322;27;20066;-69
2022/12/07 00:58:08;;;;;;;7.97;2.30;;;3.80;99.90;;;;;;5139652;27;20046;-70
2022/12/07 01:00:36;;;;;;;6.50;1.73;;;3.80;99.90;;;;;;5131846;27;20040;-69
2022/12/07 01:03:03;;;;;;;9.40;2.43;;;3.80;99.90;;;;;;5139586;27;20085;-69
2022/12/07 01:05:29;;;;;;;8.10;2.33;;;3.70;99.90;;;;;;5130333;27;20054;-69
2022/12/07 01:07:54;;;;;;;7.97;2.30;;;3.70;99.90;;;;;;5113636;27;20134;-69
2022/12/07 01:10:20;;;;;;;8.60;2.33;;;3.70;99.90;;;;;;5139642;27;20047;-70
2022/12/07 01:12:46;;;;;;;6.97;2.37;;;3.70;99.90;;;;;;5137120;27;20069;-70
2022/12/07 01:15:12;;;;;;;7.97;2.13;;;3.70;99.90;;;;;;5137465;27;20051;-70
2022/12/07 01:17:37;;;;;;;10.53;2.43;;;3.70;99.90;;;;;;5140895;27;20141;-70
2022/12/07 01:20:04;;;;;;;6.33;2.50;;;3.70;99.90;;;;;;5125420;27;20044;-70
2022/12/07 01:22:29;;;;;;;5.60;2.13;;;3.60;99.90;;;;;;5123438;27;20039;-70
2022/12/07 01:24:55;;;;;;;8.93;2.77;;;3.60;99.90;;;;;;5137573;27;20053;-70
2022/12/07 01:27:21;;;;;;;10.87;2.67;;;3.60;99.90;;;;;;5130673;27;20078;-69
2022/12/07 01:29:46;;;;;;;8.43;1.93;;;3.60;99.90;;;;;;5140134;27;20054;-70
2022/12/07 01:32:12;;;;;;;8.83;2.33;;;3.60;99.90;;;;;;5137571;27;20086;-70
2022/12/07 01:34:38;;;;;;;7.50;1.93;;;3.60;99.90;;;;;;5139253;27;20038;-70
2022/12/07 01:37:04;;;;;;;7.23;1.83;;;3.60;99.90;;;;;;5133991;27;20107;-69
2022/12/07 01:39:29;;;;;;;5.10;1.83;;;3.60;99.90;;;;;;5121459;27;20038;-69
2022/12/07 01:41:55;;;;;;;6.10;1.40;;;3.60;99.90;;;;;;5138134;27;20047;-69
2022/12/07 01:44:25;;;;;;;7.07;1.90;;;3.60;99.90;;;;;;5139306;27;20094;-70
2022/12/07 01:47:08;;;;;;;8.50;2.00;;;3.60;99.90;;;;;;5138657;27;20043;-70
2022/12/07 01:49:38;;;;;;;6.47;1.73;;;3.50;99.90;;;;;;5135047;27;20043;-70
2022/12/07 01:52:16;;;;;;;6.30;1.57;;;3.60;99.90;;;;;;5121534;27;20047;-69
2022/12/07 01:54:44;;;;;;;8.00;1.80;;;3.60;99.90;;;;;;5138720;27;20122;-70
2022/12/07 01:57:10;;;;;;;8.70;1.93;;;3.50;99.90;;;;;;5129109;27;20438;-70
2022/12/07 01:59:37;;;;;;;5.60;1.77;;;3.50;99.90;;;;;;5136908;27;20118;-70
2022/12/07 02:02:08;;;;;;;6.17;1.53;;;3.50;99.90;;;;;;5138272;27;20062;-70
2022/12/07 02:04:35;;;;;;;4.72;1.40;;;3.50;99.90;;;;;;5140210;27;20039;-70
2022/12/07 02:07:03;;;;;;;5.47;1.60;;;3.40;99.90;;;;;;5128186;27;20043;-69
2022/12/07 02:09:28;;;;;;;7.27;1.80;;;3.40;99.90;;;;;;5115454;27;20452;-70
2022/12/07 02:11:55;;;;;;;6.30;1.87;;;3.40;99.90;;;;;;5133090;27;20067;-70
2022/12/07 02:14:21;;;;;;;7.47;1.60;;;3.50;99.90;;;;;;5123145;27;20051;-70
2022/12/07 02:16:52;;;;;;;7.93;1.70;;;3.50;99.90;;;;;;5116338;27;20043;-70
2022/12/07 02:20:04;;;;;;;5.97;1.50;;;3.50;99.90;;;;;;5138323;27;20031;-70
2022/12/07 02:22:30;;;;;;;;;;;3.60;99.90;;;;;;5116546;27;20494;-70
2022/12/07 02:25:22;;;;;;;5.43;1.43;;;3.60;99.90;;;;;;5134971;27;19923;-70
2022/12/07 02:27:59;;;;;;;7.25;1.42;;;3.60;99.90;;;;;;5080525;27;20043;-69
2022/12/07 02:30:31;;;;;;;7.60;1.47;;;3.60;99.90;;;;;;5137933;27;20474;-70
2022/12/07 02:32:59;;;;;;;7.72;1.90;;;3.60;99.90;;;;;;5137868;27;20043;-70
2022/12/07 02:35:36;;;;;;;3.90;1.30;;;3.60;99.90;;;;;;5137549;27;20872;-70
2022/12/07 02:38:14;;;;;;;5.27;1.20;;;3.60;99.90;;;;;;5121302;27;20128;-70
2022/12/07 02:40:51;;;;;;;8.47;1.53;;;3.60;99.90;;;;;;5137714;27;20042;-70
2022/12/07 02:43:23;;;;;;;7.60;1.20;;;3.60;99.90;;;;;;5137615;27;20046;-70
2022/12/07 02:45:51;;;;;;;5.28;1.60;;;3.60;99.90;;;;;;5137534;27;20062;-70
2022/12/07 02:48:19;;;;;;;9.27;1.60;;;3.60;99.90;;;;;;5130938;27;20612;-70
2022/12/07 02:50:49;;;;;;;8.63;1.33;;;3.60;99.90;;;;;;5132386;27;20524;-69
2022/12/07 02:53:41;;;;;;;5.00;1.30;;;3.60;99.90;;;;;;5137072;27;20062;-70
2022/12/07 02:56:13;;;;;;;8.83;1.33;;;3.60;99.90;;;;;;5123921;27;20114;-70
2022/12/07 02:59:10;;;;;;;8.90;1.48;;;3.50;99.90;;;;;;5136173;27;20051;-69
2022/12/07 03:01:45;;;;;;;5.37;1.30;;;3.50;99.90;;;;;;5104128;27;20059;-70
2022/12/07 03:04:22;;;;;;;7.00;1.60;;;3.50;99.90;;;;;;5133397;27;20808;-69
2022/12/07 03:06:54;;;;;;;5.63;1.60;;;3.50;99.90;;;;;;5109016;27;20102;-70
2022/12/07 03:09:42;;;;;;;7.88;1.90;;;3.50;99.90;;;;;;5129996;27;20402;-69
2022/12/07 03:12:18;;;;;;;4.63;1.87;;;3.50;99.90;;;;;;5137730;27;20055;-69
2022/12/07 03:14:57;;;;;;;5.27;1.50;;;3.50;99.90;;;;;;5130240;27;20090;-70
2022/12/07 03:17:31;;;;;;;8.37;1.67;;;3.60;99.90;;;;;;5126359;27;20055;-70
2022/12/07 03:20:01;;;;;;;6.93;1.50;;;3.60;99.90;;;;;;5135409;27;20039;-69
2022/12/07 03:22:31;;;;;;;8.20;1.77;;;3.70;99.90;;;;;;5137711;27;20051;-70
2022/12/07 03:25:09;;;;;;;6.73;1.57;;;3.70;99.90;;;;;;5136008;27;20051;-70
2022/12/07 03:27:44;;;;;;;6.73;1.20;;;3.70;99.90;;;;;;5116957;27;20034;-69
2022/12/07 03:30:12;;;;;;;5.00;1.40;;;3.80;99.90;;;;;;5138272;27;20216;-70
2022/12/07 03:33:16;;;;;;;5.57;1.47;;;3.80;99.90;;;;;;5136168;27;20035;-70
2022/12/07 03:35:58;;;;;;;4.13;1.00;;;3.80;99.90;;;;;;5130808;27;20055;-69
2022/12/07 03:38:31;;;;;;;4.72;1.20;;;3.80;99.90;;;;;;5129491;27;20056;-69
2022/12/07 03:41:06;;;;;;;5.57;1.33;;;3.80;99.90;;;;;;5135396;27;20042;-70
2022/12/07 03:43:32;;;;;;;6.83;1.40;;;3.80;99.90;;;;;;5136709;27;20526;-70
2022/12/07 03:46:35;;;;;;;9.83;1.70;;;3.90;99.90;;;;;;5118367;27;20054;-69
2022/12/07 03:49:07;;;;;;;10.87;1.53;;;3.80;99.90;;;;;;5117817;27;20047;-69
2022/12/07 03:52:00;;;;;;;3.67;1.20;;;3.80;99.90;;;;;;5129389;27;20047;-69
2022/12/07 03:54:34;;;;;;;7.33;1.33;;;3.80;99.90;;;;;;5136705;27;20031;-69
2022/12/07 03:57:02;;;;;;;3.77;1.10;;;3.80;99.90;;;;;;5136911;27;20051;-70
2022/12/07 03:59:29;;;;;;;8.80;1.20;;;3.80;99.90;;;;;;5135590;27;20038;-69
2022/12/07 04:01:57;;;;;;;6.93;1.30;;;3.80;99.90;;;;;;5136159;27;20034;-69
2022/12/07 04:04:26;;;;;;;4.20;1.37;;;3.80;99.90;;;;;;5120716;27;20073;-69
2022/12/07 04:06:52;;;;;;;9.93;1.67;;;3.90;99.90;;;;;;5134479;27;20050;-70
2022/12/07 04:09:17;;;;;;;7.00;1.50;;;3.90;99.90;;;;;;5135874;27;20077;-70
2022/12/07 04:11:43;;;;;;;6.23;1.33;;;3.90;99.90;;;;;;5113328;27;20055;-69
2022/12/07 04:14:18;;;;;;;6.70;1.37;;;3.90;99.90;;;;;;5113488;27;20102;-69
2022/12/07 04:16:56;;;;;;;6.63;1.30;;;3.90;99.90;;;;;;5100595;28;20478;-69
2022/12/07 04:19:25;;;;;;;7.27;1.50;;;3.90;99.90;;;;;;5112324;28;20051;-70
2022/12/07 04:21:50;;;;;;;5.80;1.30;;;3.90;99.90;;;;;;5129788;28;20587;-70
2022/12/07 04:24:16;;;;;;;6.30;1.30;;;3.90;99.90;;;;;;5136178;28;20067;-69
2022/12/07 04:26:43;;;;;;;6.70;1.60;;;3.90;99.90;;;;;;5136905;27;20054;-70
2022/12/07 04:29:09;;;;;;;6.20;1.50;;;3.90;99.90;;;;;;5136380;27;20125;-70
2022/12/07 04:31:36;;;;;;;6.20;1.40;;;3.90;99.90;;;;;;5130374;28;20093;-70
2022/12/07 04:34:03;;;;;;;3.60;1.13;;;3.90;99.90;;;;;;5098488;28;20238;-70
2022/12/07 04:36:28;;;;;;;9.13;1.50;;;3.80;99.90;;;;;;5134059;28;20517;-70
2022/12/07 04:38:54;;;;;;;7.50;1.30;;;3.80;99.90;;;;;;5111123;28;20035;-70
2022/12/07 04:41:26;;;;;;;7.50;1.50;;;3.80;99.90;;;;;;5134322;28;20047;-70
2022/12/07 04:43:56;;;;;;;6.43;1.52;;;3.70;99.90;;;;;;5110913;28;20048;-71
2022/12/07 04:46:23;;;;;;;7.67;1.73;;;3.70;99.90;;;;;;5112232;28;20054;-69
2022/12/07 04:48:49;;;;;;;6.17;1.43;;;3.60;99.90;;;;;;5136163;27;20091;-70
2022/12/07 04:51:26;;;;;;;5.07;1.30;;;3.60;99.90;;;;;;5128636;27;20039;-70
2022/12/07 04:53:53;;;;;;;8.50;1.40;;;3.50;99.90;;;;;;5132684;28;20043;-70
2022/12/07 04:56:19;;;;;;;4.97;1.27;;;3.50;99.90;;;;;;5135562;28;20040;-70
2022/12/07 04:58:46;;;;;;;5.20;1.20;;;3.40;99.90;;;;;;5132808;28;20040;-70
2022/12/07 05:01:13;;;;;;;5.20;1.53;;;3.40;99.90;;;;;;5136280;27;20468;-70
2022/12/07 05:03:39;;;;;;;9.10;1.53;;;3.40;99.90;;;;;;5134727;28;20041;-69
2022/12/07 05:06:05;;;;;;;4.67;1.30;;;3.30;99.90;;;;;;5100397;28;20126;-70
2022/12/07 05:08:32;;;;;;;8.47;1.40;;;3.30;99.90;;;;;;5112448;28;20085;-70
2022/12/07 05:10:59;;;;;;;5.70;1.50;;;3.30;99.90;;;;;;5125628;28;20063;-70
2022/12/07 05:13:24;;;;;;;8.17;1.50;;;3.30;99.90;;;;;;5091961;28;20060;-70
2022/12/07 05:15:50;;;;;;;6.23;1.53;;;3.30;99.90;;;;;;5136429;27;20065;-69
2022/12/07 05:18:16;;;;;;;5.67;1.33;;;3.30;99.90;;;;;;5139125;27;20043;-71
2022/12/07 05:20:42;;;;;;;6.17;1.30;;;3.20;99.90;;;;;;5122865;27;20043;-69
2022/12/07 05:23:08;;;;;;;8.17;1.50;;;3.20;99.90;;;;;;5119939;27;20044;-70
2022/12/07 05:25:34;;;;;;;6.90;1.43;;;3.30;99.90;;;;;;5120532;27;20073;-70
2022/12/07 05:28:00;;;;;;;7.50;1.47;;;3.30;99.90;;;;;;5139447;27;20042;-70
2022/12/07 05:30:26;;;;;;;5.93;1.70;;;3.30;99.90;;;;;;5139061;27;20047;-70
2022/12/07 05:32:52;;;;;;;7.07;1.43;;;3.30;99.90;;;;;;5131907;27;20111;-70
2022/12/07 05:35:18;;;;;;;7.73;1.20;;;3.40;99.90;;;;;;5137504;27;20062;-70
2022/12/07 05:37:44;;;;;;;7.13;1.47;;;3.30;99.90;;;;;;5120889;27;20046;-70
2022/12/07 05:40:10;;;;;;;7.93;1.27;;;3.30;99.90;;;;;;5138076;27;20131;-70
2022/12/07 05:42:37;;;;;;;5.13;1.60;;;3.30;99.90;;;;;;5140113;27;20088;-70
2022/12/07 05:45:03;;;;;;;5.97;1.40;;;3.20;99.90;;;;;;5137197;27;20079;-70
2022/12/07 05:47:29;;;;;;;3.90;1.20;;;3.20;99.90;;;;;;5096676;27;20716;-70
2022/12/07 05:49:54;;;;;;;5.67;1.17;;;3.20;99.90;;;;;;5138884;27;20047;-70
2022/12/07 05:52:20;;;;;;;5.97;1.50;;;3.20;99.90;;;;;;5121073;27;20110;-70
2022/12/07 05:54:46;;;;;;;4.67;1.10;;;3.10;99.90;;;;;;5138955;27;20047;-70
2022/12/07 05:57:12;;;;;;;7.80;1.20;;;3.10;99.90;;;;;;5120631;27;20076;-70
2022/12/07 05:59:37;;;;;;;5.17;1.37;;;3.10;99.90;;;;;;5119319;27;20058;-70
2022/12/07 06:02:09;;;;;;;6.83;1.23;;;3.10;99.90;;;;;;5085720;28;20051;-70
2022/12/07 06:04:37;;;;;;;;;;;3.10;99.90;;;;;;5139739;27;20691;-69
2022/12/07 06:07:03;;;;;;;5.30;1.50;;;3.00;99.90;;;;;;5137031;27;19919;-69
2022/12/07 06:09:29;;;;;;;8.07;1.47;;;3.00;99.90;;;;;;5137785;27;20055;-69
2022/12/07 06:14:41;;;;;;;8.97;1.43;;;2.90;99.90;;;;;;5135826;27;20529;-70
2022/12/07 06:17:07;;;;;;;5.67;1.33;;;3.00;99.90;;;;;;5138456;27;20035;-70
2022/12/07 06:19:33;;;;;;;5.70;1.40;;;3.00;99.90;;;;;;5138263;27;20039;-70
2022/12/07 06:21:59;;;;;;;8.73;1.90;;;3.00;99.90;;;;;;5114790;27;21081;-69
2022/12/07 06:24:25;;;;;;;5.13;1.30;;;2.90;99.90;;;;;;5112066;27;20040;-70
2022/12/07 06:26:51;;;;;;;6.23;1.40;;;2.90;99.90;;;;;;5113979;27;20035;-70
2022/12/07 06:29:17;;;;;;;9.80;1.80;;;2.90;99.90;;;;;;5137571;27;20039;-70
2022/12/07 06:31:43;;;;;;;6.13;1.40;;;2.90;99.90;;;;;;5138049;27;20051;-70
2022/12/07 06:34:12;;;;;;;5.53;1.40;;;2.90;99.90;;;;;;5137901;27;20057;-70
2022/12/07 06:36:38;;;;;;;8.10;1.27;;;2.90;99.90;;;;;;5128620;27;20448;-70
2022/12/07 06:39:05;;;;;;;8.50;2.13;;;2.90;99.90;;;;;;5138929;27;20060;-70
2022/12/07 06:41:31;;;;;;;6.40;1.43;;;2.90;99.90;;;;;;5136534;27;20051;-70
2022/12/07 06:43:56;;;;;;;5.47;1.33;;;2.80;99.90;;;;;;5138723;27;20099;-70
2022/12/07 06:46:23;;;;;;;5.67;1.30;;;2.80;99.90;;;;;;5097098;27;20450;-70
2022/12/07 06:48:49;;;;;;;7.60;1.40;;;2.80;99.90;;;;;;5138061;27;20138;-69
2022/12/07 06:51:15;;;;;;;8.73;1.70;;;2.90;99.90;;;;;;5132032;27;20063;-69
2022/12/07 06:53:40;;;;;;;8.27;1.50;;;2.90;99.90;;;;;;5108250;27;20444;-69
2022/12/07 06:56:07;;;;;;;6.47;1.87;;;3.00;99.90;;;;;;5112081;27;20060;-70
2022/12/07 06:58:32;;;;;;;8.80;1.83;;;3.00;99.90;;;;;;5109101;27;20040;-70
2022/12/07 07:00:58;;;;;;;6.30;1.40;;;3.00;99.90;;;;;;5115418;27;20432;-69
2022/12/07 07:03:24;;;;;;;6.07;2.07;;;3.10;99.90;;;;;;5110383;27;20086;-69
2022/12/07 07:05:50;;;;;;;6.10;1.40;;;3.10;99.90;;;;;;5097756;27;20048;-69
2022/12/07 07:08:15;;;;;;;9.10;1.47;;;3.10;99.90;;;;;;5110070;27;20059;-70
2022/12/07 07:10:41;;;;;;;8.13;1.73;;;3.20;99.90;;;;;;5107729;27;20153;-69
2022/12/07 07:13:08;;;;;;;6.33;1.57;;;3.20;99.90;;;;;;5096750;28;20461;-69
2022/12/07 07:15:34;;;;;;;9.53;2.20;;;3.20;99.90;;;;;;5110880;27;20062;-69
2022/12/07 07:18:00;;;;;;;6.27;1.27;;;3.20;99.90;;;;;;5107940;27;20128;-70
2022/12/07 07:20:26;;;;;;;7.50;2.00;;;3.20;99.90;;;;;;5108940;27;20083;-70
2022/12/07 07:22:54;;;;;;;9.70;1.97;;;3.20;99.90;;;;;;5114141;27;20096;-70
2022/12/07 07:25:20;;;;;;;8.33;1.70;;;3.10;99.90;;;;;;5106566;27;20111;-69
2022/12/07 07:27:46;;;;;;;5.30;1.30;;;3.10;99.90;;;;;;5112068;27;20172;-70
2022/12/07 07:30:12;;;;;;;5.10;1.27;;;3.10;99.90;;;;;;5108482;27;20137;-70
2022/12/07 07:32:37;;;;;;;10.47;1.70;;;3.10;99.90;;;;;;5093212;27;20054;-70
2022/12/07 07:35:03;;;;;;;6.80;2.00;;;3.10;99.90;;;;;;5107488;27;20415;-71
2022/12/07 07:37:29;;;;;;;6.90;1.90;;;3.00;99.90;;;;;;5134232;27;20067;-70
2022/12/07 07:39:55;;;;;;;6.63;1.67;;;3.00;99.90;;;;;;5136251;27;20108;-71
2022/12/07 07:42:21;;;;;;;7.20;1.63;;;3.00;99.90;;;;;;5137706;27;20470;-71
2022/12/07 07:44:46;;;;;;;6.90;1.67;;;3.00;99.90;;;;;;5101290;27;20055;-70
2022/12/07 07:47:12;;;;;;;7.67;1.80;;;3.00;99.90;;;;;;5117376;27;20106;-69
2022/12/07 07:49:38;;;;;;;6.37;1.80;;;3.10;99.90;;;;;;5103132;27;20090;-69
2022/12/07 07:52:05;;;;;;;5.10;1.90;;;3.10;99.90;;;;;;5103524;28;20043;-68
2022/12/07 07:54:31;;;;;;;10.27;1.83;;;3.10;99.90;;;;;;5118581;27;20100;-69
2022/12/07 07:56:57;;;;;;;5.33;1.20;;;3.20;99.90;;;;;;5101868;28;20069;-68
2022/12/07 07:59:24;;;;;;;5.40;1.43;;;3.30;99.90;;;;;;5116837;27;20124;-69
2022/12/07 08:01:50;;;;;;;4.97;1.40;;;3.40;99.90;;;;;;5117327;27;20036;-68
2022/12/07 08:04:16;;;;;;;9.10;1.60;;;3.40;99.90;;;;;;5117185;27;20127;-69
2022/12/07 08:06:42;;;;;;;3.17;1.10;;;3.40;99.90;;;;;;5128951;27;20035;-69
2022/12/07 08:09:08;;;;;;;5.40;1.53;;;3.40;99.90;;;;;;5118543;27;20423;-68
2022/12/07 08:11:34;;;;;;;3.33;1.23;;;3.40;99.90;;;;;;5096185;27;20055;-68
2022/12/07 08:14:00;;;;;;;4.10;1.00;;;3.30;99.90;;;;;;5090024;28;20065;-69
2022/12/07 08:16:26;;;;;;;8.77;1.40;;;3.40;99.90;;;;;;5117246;27;20521;-68
2022/12/07 08:18:52;;;;;;;3.53;1.10;;;3.30;99.90;;;;;;5120113;27;20054;-69
2022/12/07 08:21:18;;;;;;;5.87;1.27;;;3.30;99.90;;;;;;5116909;28;20142;-69
2022/12/07 08:23:43;;;;;;;8.83;1.70;;;3.30;99.90;;;;;;5096481;28;20099;-69
2022/12/07 08:26:12;;;;;;;8.77;1.63;;;3.30;99.90;;;;;;5104974;28;20062;-68
2022/12/07 08:28:37;;;;;;;4.60;1.30;;;3.20;99.90;;;;;;5105084;28;20127;-69
2022/12/07 08:31:06;;;;;;;6.13;1.50;;;3.20;99.90;;;;;;5127819;28;20602;-69
2022/12/07 08:33:32;;;;;;;8.80;1.60;;;3.20;99.90;;;;;;5111492;28;20058;-68
2022/12/07 08:36:03;;;;;;;5.00;1.40;;;3.20;99.90;;;;;;5114862;28;20056;-69
2022/12/07 08:38:29;;;;;;;7.23;1.60;;;3.20;99.90;;;;;;5123572;28;20054;-69
2022/12/07 08:40:56;;;;;;;6.63;1.30;;;3.20;99.90;;;;;;5121824;28;20285;-68
2022/12/07 08:43:22;;;;;;;6.67;1.33;;;3.30;99.90;;;;;;5108876;28;20051;-68
2022/12/07 08:45:54;;;;;;;8.40;2.00;;;3.30;99.90;;;;;;5123133;27;20047;-69
2022/12/07 08:48:24;;;;;;;;;;;3.30;99.90;;;;;;5125568;28;20063;-68
2022/12/07 08:50:50;;;;;;;6.03;1.60;;;3.30;99.90;;;;;;5123261;27;20018;-68
2022/12/07 08:53:16;;;;;;;6.40;1.90;;;3.40;99.90;;;;;;5124308;27;20028;-69
2022/12/07 08:55:44;;;;;;;10.23;1.77;;;3.50;99.90;;;;;;5104221;27;20152;-68
2022/12/07 08:58:10;;;;;;;7.67;2.10;;;3.60;99.90;;;;;;5098961;27;20044;-69
2022/12/07 09:00:36;;;;;;;4.67;1.60;;;3.70;99.90;;;;;;5102186;27;20047;-69
2022/12/07 09:03:02;;;;;;;9.60;2.03;;;3.80;99.90;;;;;;5106114;27;20107;-72
2022/12/07 09:05:28;;;;;;;5.43;1.57;;;3.90;99.90;;;;;;5105542;27;20043;-68
2022/12/07 09:07:57;;;;;;;8.53;1.83;;;3.90;99.90;;;;;;5095080;28;20349;-68
2022/12/07 09:10:23;;;;;;;10.17;1.93;;;3.90;99.90;;;;;;5095420;27;20069;-68
2022/12/07 09:12:49;;;;;;;6.53;1.50;;;4.00;99.90;;;;;;5106601;27;20059;-68
2022/12/07 09:15:14;;;;;;;5.10;1.60;;;3.90;99.90;;;;;;5113118;27;20090;-68
2022/12/07 09:17:40;;;;;;;7.10;1.70;;;3.90;99.90;;;;;;5128847;27;20040;-68
2022/12/07 09:20:07;;;;;;;7.43;1.87;;;3.90;99.90;;;;;;5106637;27;20052;-67
2022/12/07 09:22:33;;;;;;;8.00;1.70;;;4.00;99.90;;;;;;5067190;28;20150;-69
2022/12/07 09:24:59;;;;;;;8.97;2.13;;;4.00;99.90;;;;;;5100717;27;20422;-70
2022/12/07 09:27:25;;;;;;;7.77;2.10;;;4.00;99.90;;;;;;5101789;27;20036;-70
2022/12/07 09:29:51;;;;;;;7.33;1.77;;;4.00;99.90;;;;;;5100607;27;20071;-69
2022/12/07 09:32:17;;;;;;;5.83;2.03;;;4.10;99.90;;;;;;5084519;28;20040;-69
2022/12/07 09:34:43;;;;;;;8.43;2.27;;;4.10;99.90;;;;;;5103476;27;20351;-69
2022/12/07 09:37:09;;;;;;;8.57;1.90;;;4.20;99.90;;;;;;5085503;28;20060;-69
2022/12/07 09:39:37;;;;;;;7.57;2.03;;;4.30;99.90;;;;;;5084454;27;20043;-70
2022/12/07 09:42:04;;;;;;;8.23;1.57;;;4.40;99.90;;;;;;5120431;27;20043;-70
2022/12/07 09:44:30;;;;;;;10.37;3.00;;;4.50;99.90;;;;;;5104024;27;20186;-69
2022/12/07 09:46:56;;;;;;;6.40;1.63;;;4.50;99.90;;;;;;5102753;27;20063;-69
2022/12/07 09:49:25;;;;;;;10.33;3.07;;;4.60;99.90;;;;;;5099467;27;20658;-69
2022/12/07 09:52:25;;;;;;;6.53;1.93;;;4.60;99.90;;;;;;5103701;27;20078;-69
2022/12/07 09:54:51;;;;;;;7.83;4.20;;;4.70;99.90;;;;;;5089888;27;20062;-69
2022/12/07 09:57:22;;;;;;;4.17;1.90;;;4.70;99.90;;;;;;5103342;27;20302;-70
2022/12/07 09:59:48;;;;;;;10.43;2.13;;;4.70;99.90;;;;;;5102664;27;20044;-69
2022/12/07 10:02:52;;;;;;;4.47;1.50;;;4.80;99.90;;;;;;5084075;27;20078;-69
2022/12/07 10:05:32;;;;;;;9.50;2.27;;;4.80;99.90;;;;;;5020815;28;20037;-70
2022/12/07 10:07:58;;;;;;;6.83;2.10;;;4.80;99.90;;;;;;5005182;28;20123;-69
2022/12/07 10:10:31;;;;;;;5.97;1.70;;;4.80;99.90;;;;;;5063473;28;20063;-70
2022/12/07 10:13:07;;;;;;;8.33;1.70;;;4.70;99.90;;;;;;5103976;28;20052;-70
2022/12/07 10:15:59;;;;;;;7.53;1.83;;;4.70;99.90;;;;;;5103522;27;20047;-69
2022/12/07 10:18:38;;;;;;;7.70;1.98;;;4.70;99.90;;;;;;5095931;27;20056;-69
2022/12/07 10:21:20;;;;;;;9.13;1.80;;;4.80;99.90;;;;;;5104614;27;20062;-69
2022/12/07 10:24:04;;;;;;;7.55;2.00;;;4.70;99.90;;;;;;5102178;27;20056;-71
2022/12/07 10:26:33;;;;;;;8.90;2.07;;;4.80;99.90;;;;;;5103597;27;20048;-69
2022/12/07 10:29:04;;;;;;;9.10;1.63;;;4.70;99.90;;;;;;5083891;28;20078;-68
2022/12/07 10:31:30;;;;;;;6.53;2.20;;;4.70;99.90;;;;;;5101953;27;20589;-69
2022/12/07 10:33:58;;;;;;;4.93;1.83;;;4.70;99.90;;;;;;5069270;27;20050;-69
2022/12/07 10:36:36;;;;;;;7.07;1.80;;;4.70;99.90;;;;;;5099797;27;20518;-71
2022/12/07 10:39:10;;;;;;;6.20;1.80;;;4.80;99.90;;;;;;5101359;27;20066;-69
2022/12/07 10:41:36;;;;;;;9.07;1.87;;;4.80;99.90;;;;;;5084423;28;20050;-69
2022/12/07 10:44:01;;;;;;;4.13;1.33;;;4.80;99.90;;;;;;5066994;28;20051;-69
2022/12/07 10:46:50;;;;;;;5.17;1.37;;;4.80;99.90;;;;;;5100862;27;20050;-69
2022/12/07 10:49:39;;;;;;;5.10;1.40;;;4.80;99.90;;;;;;5102389;27;20047;-69
2022/12/07 10:52:30;;;;;;;4.27;1.33;;;4.80;99.90;;;;;;5064708;27;20051;-69
2022/12/07 10:55:08;;;;;;;4.80;1.33;;;4.80;99.90;;;;;;5101516;28;20112;-68
2022/12/07 10:58:02;;;;;;;5.63;1.20;;;4.80;99.90;;;;;;5101540;27;20094;-69
2022/12/07 11:00:50;;;;;;;5.90;1.40;;;4.90;99.90;;;;;;5100076;27;20043;-69
2022/12/07 11:04:01;;;;;;;4.10;1.20;;;4.90;99.90;;;;;;5100903;27;20596;-69
2022/12/07 11:06:35;;;;;;;2.93;1.30;;;5.00;99.90;;;;;;5079872;27;20074;-68
2022/12/07 11:09:00;;;;;;;6.33;1.30;;;5.00;99.90;;;;;;5102273;27;20090;-68
2022/12/07 11:11:51;;;;;;;5.50;1.40;;;5.10;99.90;;;;;;5102879;27;20059;-69
2022/12/07 11:14:52;;;;;;;6.73;1.70;;;5.20;99.90;;;;;;5101829;28;20051;-69
2022/12/07 11:17:29;;;;;;;4.40;1.63;;;5.10;99.90;;;;;;5101253;27;20047;-70
2022/12/07 11:20:32;;;;;;;7.50;1.60;;;5.10;99.90;;;;;;5097597;27;20048;-69
2022/12/07 11:23:24;;;;;;;4.93;1.63;;;5.10;99.90;;;;;;5098645;27;20058;-68
2022/12/07 11:25:54;;;;;;;6.75;1.52;;;5.20;99.90;;;;;;5104187;27;20067;-68
2022/12/07 11:29:05;;;;;;;4.57;2.10;;;5.20;99.90;;;;;;5101980;27;20047;-68
2022/12/07 11:31:42;;;;;;;9.20;2.30;;;5.30;99.90;;;;;;5101436;27;20035;-69
2022/12/07 11:34:15;;;;;;;9.73;1.80;;;5.30;99.90;;;;;;5098164;27;20055;-69
2022/12/07 11:36:50;;;;;;;7.30;1.73;;;5.30;99.90;;;;;;5099537;27;20040;-69
2022/12/07 11:39:19;;;;;;;7.07;1.60;;;5.30;99.90;;;;;;5101305;28;20353;-69
2022/12/07 11:41:48;;;;;;;7.17;1.67;;;5.30;99.90;;;;;;5116523;27;20101;-69
2022/12/07 11:44:49;;;;;;;8.93;1.60;;;5.20;99.90;;;;;;5100485;27;20081;-69
2022/12/07 11:47:27;;;;;;;7.53;1.43;;;5.10;99.90;;;;;;5100851;27;20043;-69
2022/12/07 11:50:27;;;;;;;5.07;1.73;;;5.00;99.90;;;;;;5101930;27;20086;-69
2022/12/07 11:53:08;;;;;;;4.27;1.80;;;4.90;99.90;;;;;;5099718;27;20039;-68
2022/12/07 11:56:01;;;;;;;4.07;1.30;;;4.80;99.90;;;;;;5101334;27;20055;-68
2022/12/07 11:58:33;;;;;;;4.63;1.07;;;4.70;99.90;;;;;;5099684;28;20050;-69
2022/12/07 12:01:16;;;;;;;3.97;1.48;;;4.60;99.90;;;;;;5103837;27;20036;-69
2022/12/07 12:03:58;;;;;;;4.53;0.60;;;4.60;99.90;;;;;;5109519;27;20056;-69
2022/12/07 12:06:23;;;;;;;4.63;0.98;;;4.50;99.90;;;;;;5111894;27;20073;-70
2022/12/07 12:08:52;;;;;;;4.37;1.00;;;4.60;99.90;;;;;;5130427;27;20047;-69
2022/12/07 12:11:51;;;;;;;2.97;0.93;;;4.60;99.90;;;;;;5102806;27;20054;-69
2022/12/07 12:14:19;;;;;;;2.20;0.83;;;4.70;99.90;;;;;;5090076;28;20150;-69
2022/12/07 12:17:13;;;;;;;3.87;0.97;;;4.80;99.90;;;;;;5113998;27;20055;-69
2022/12/07 12:20:01;;;;;;;2.77;0.93;;;4.80;99.90;;;;;;5107273;27;20071;-68
2022/12/07 12:22:39;;;;;;;4.27;1.00;;;4.90;99.90;;;;;;5091241;28;20040;-69
2022/12/07 12:25:11;;;;;;;3.73;0.83;;;5.00;99.90;;;;;;5095769;28;20044;-69
2022/12/07 12:27:39;;;;;;;3.63;1.10;;;5.10;99.90;;;;;;5097090;28;20056;-69
2022/12/07 12:30:24;;;;;;;2.87;1.20;;;5.20;99.90;;;;;;5106812;28;20047;-69
2022/12/07 12:32:50;;;;;;;5.53;1.50;;;5.30;99.90;;;;;;5094877;28;20032;-69
2022/12/07 12:35:30;;;;;;;5.50;1.50;;;5.40;99.90;;;;;;5094841;28;20105;-68
2022/12/07 12:38:25;;;;;;;5.00;1.43;;;5.40;99.90;;;;;;5108005;28;20043;-68
2022/12/07 12:40:51;;;;;;;4.50;1.20;;;5.50;99.90;;;;;;5107627;28;20053;-69
2022/12/07 12:43:39;;;;;;;5.83;1.67;;;5.50;99.90;;;;;;5116875;27;20603;-69
2022/12/07 12:46:33;;;;;;;10.07;1.80;;;5.50;99.90;;;;;;5111670;27;20043;-69
2022/12/07 12:49:21;;;;;;;8.17;2.00;;;5.50;99.90;;;;;;5107955;28;20132;-68
2022/12/07 12:51:57;;;;;;;5.53;2.30;;;5.50;99.90;;;;;;5119109;28;20048;-69
2022/12/07 12:54:28;;;;;;;4.77;1.70;;;5.50;99.90;;;;;;5124416;28;20398;-69
2022/12/07 12:57:09;;;;;;;7.50;1.80;;;5.50;99.90;;;;;;5101296;28;20055;-70
2022/12/07 12:59:55;;;;;;;5.63;1.90;;;5.50;99.90;;;;;;5100354;28;20559;-69
2022/12/07 13:02:47;;;;;;;8.50;1.83;;;5.40;99.90;;;;;;5097795;28;21269;-69
2022/12/07 13:05:13;;;;;;;7.85;2.05;;;5.40;99.90;;;;;;5100820;28;20032;-69
2022/12/07 13:07:48;;;;;;;6.00;1.80;;;5.40;99.90;;;;;;5100943;28;21386;-69
2022/12/07 13:10:38;;;;;;;5.80;1.97;;;5.50;99.90;;;;;;5100362;28;20138;-70
2022/12/07 13:13:15;;;;;;;10.77;1.90;;;5.50;99.90;;;;;;5102299;28;21021;-69
2022/12/07 13:15:42;;;;;;;9.57;1.83;;;5.50;99.90;;;;;;5098408;28;20047;-69
2022/12/07 13:18:26;;;;;;;11.07;2.47;;;5.50;99.90;;;;;;5107017;28;20039;-67
2022/12/07 13:20:57;;;;;;;7.73;1.70;;;5.40;99.90;;;;;;5110959;28;20051;-69
2022/12/07 13:23:30;;;;;;;6.67;1.63;;;5.40;99.90;;;;;;5096325;28;20036;-69